Time;durP1;ratioP1;P1;durP2;ratioP2;P2;SDS_P1;SDS_P2;PMS_P1;PMS_P2;Temp;Humidity;BMP_temperature;BMP_pressure;BME280_temperature;BME280_humidity;BME280_pressure;Samples;Min_cycle;Max_cycle;Signal;HPM_P1;HPM_P2
2021/12/27 00:01:03;;;;;;;35.90;21.27;;;;;;;;;;5051536;28;44190;-83
2021/12/27 00:03:30;;;;;;;41.80;22.25;;;;;;;;;;5052491;28;44868;-82
2021/12/27 00:05:57;;;;;;;45.55;20.80;;;;;;;;;;5052517;28;42885;-83
2021/12/27 00:08:23;;;;;;;47.97;22.45;;;;;;;;;;5051220;28;42721;-83
2021/12/27 00:10:50;;;;;;;44.70;22.88;;;;;;;;;;5052140;28;42874;-83
2021/12/27 00:13:17;;;;;;;49.85;22.80;;;;;;;;;;5051064;28;42865;-82
2021/12/27 00:15:44;;;;;;;51.53;22.70;;;;;;;;;;5052628;28;44794;-83
2021/12/27 00:18:11;;;;;;;49.72;23.05;;;;;;;;;;5051873;28;44931;-83
2021/12/27 00:20:38;;;;;;;49.40;22.25;;;;;;;;;;5051131;28;44825;-82
2021/12/27 00:23:05;;;;;;;50.25;22.08;;;;;;;;;;5050877;28;42803;-82
2021/12/27 00:25:32;;;;;;;43.60;20.90;;;;;;;;;;5052140;28;44293;-82
2021/12/27 00:27:58;;;;;;;55.45;23.90;;;;;;;;;;5050617;28;42893;-82
2021/12/27 00:30:25;;;;;;;51.63;23.55;;;;;;;;;;5052399;28;43827;-83
2021/12/27 00:32:52;;;;;;;41.40;21.35;;;;;;;;;;5051751;28;42829;-83
2021/12/27 00:35:19;;;;;;;40.35;21.92;;;;;;;;;;5050977;28;44796;-83
2021/12/27 00:37:46;;;;;;;46.95;23.17;;;;;;;;;;5051371;28;43799;-82
2021/12/27 00:40:13;;;;;;;44.72;22.65;;;;;;;;;;5052093;28;44723;-83
2021/12/27 00:42:40;;;;;;;42.40;20.98;;;;;;;;;;5050205;28;41488;-82
2021/12/27 00:45:06;;;;;;;42.92;22.80;;;;;;;;;;5051501;28;42484;-83
2021/12/27 00:47:33;;;;;;;37.22;20.60;;;;;;;;;;5051086;28;44931;-83
2021/12/27 00:50:00;;;;;;;45.67;21.63;;;;;;;;;;5050736;28;44838;-83
2021/12/27 00:52:27;;;;;;;40.75;20.60;;;;;;;;;;5051350;28;44901;-83
2021/12/27 00:54:53;;;;;;;52.10;23.15;;;;;;;;;;5051426;28;43345;-82
2021/12/27 00:57:20;;;;;;;38.95;21.83;;;;;;;;;;5050434;28;44992;-82
2021/12/27 00:59:47;;;;;;;43.70;21.75;;;;;;;;;;5051620;28;42889;-82
2021/12/27 01:02:13;;;;;;;53.30;22.20;;;;;;;;;;5050646;28;43869;-83
2021/12/27 01:04:40;;;;;;;61.75;24.83;;;;;;;;;;5050427;28;44876;-83
2021/12/27 01:07:07;;;;;;;48.20;23.42;;;;;;;;;;5050462;28;44699;-83
2021/12/27 01:09:56;;;;;;;44.25;23.83;;;;;;;;;;5050777;28;43600;-82
2021/12/27 01:15:11;;;;;;;51.72;23.15;;;;;;;;;;5051577;28;42986;-83
2021/12/27 01:17:39;;;;;;;53.63;23.52;;;;;;;;;;5055333;28;42634;-83
2021/12/27 01:20:08;;;;;;;59.35;24.90;;;;;;;;;;5063091;28;44915;-84
2021/12/27 01:22:34;;;;;;;57.70;24.20;;;;;;;;;;5055347;28;43732;-83
2021/12/27 01:25:01;;;;;;;57.80;23.52;;;;;;;;;;5050528;28;43991;-82
2021/12/27 01:27:28;;;;;;;53.00;25.60;;;;;;;;;;5050834;28;41860;-82
2021/12/27 01:29:55;;;;;;;52.00;23.33;;;;;;;;;;5051190;28;42931;-83
2021/12/27 01:32:23;;;;;;;56.10;24.50;;;;;;;;;;5049421;28;43622;-82
2021/12/27 01:34:50;;;;;;;52.63;24.20;;;;;;;;;;5050084;28;42650;-82
2021/12/27 01:37:18;;;;;;;48.20;23.30;;;;;;;;;;5049928;28;43877;-83
2021/12/27 01:39:45;;;;;;;57.60;24.33;;;;;;;;;;5049472;28;42954;-83
2021/12/27 01:42:12;;;;;;;55.97;24.00;;;;;;;;;;5050501;28;44718;-82
2021/12/27 01:44:40;;;;;;;67.38;24.33;;;;;;;;;;5050684;28;42939;-82
2021/12/27 01:47:09;;;;;;;55.45;24.65;;;;;;;;;;5050009;28;44933;-83
2021/12/27 01:49:37;;;;;;;58.83;24.63;;;;;;;;;;5050897;28;42845;-83
2021/12/27 01:52:04;;;;;;;67.78;26.08;;;;;;;;;;5048870;28;45164;-83
2021/12/27 01:54:31;;;;;;;57.28;25.48;;;;;;;;;;5050517;28;44713;-83
2021/12/27 01:56:58;;;;;;;49.90;24.40;;;;;;;;;;5050619;28;42898;-83
2021/12/27 01:59:25;;;;;;;63.50;24.08;;;;;;;;;;5049913;28;44950;-83
2021/12/27 02:01:51;;;;;;;63.08;25.17;;;;;;;;;;5049926;28;44755;-83
2021/12/27 02:04:19;;;;;;;64.22;23.83;;;;;;;;;;5050717;28;45282;-83
2021/12/27 02:06:45;;;;;;;71.95;25.45;;;;;;;;;;5049060;28;44728;-83
2021/12/27 02:09:12;;;;;;;56.03;24.95;;;;;;;;;;5050193;28;44640;-83
2021/12/27 02:11:39;;;;;;;55.83;24.80;;;;;;;;;;5049572;28;42964;-83
2021/12/27 02:14:06;;;;;;;53.63;23.50;;;;;;;;;;5049054;28;43395;-83
2021/12/27 02:16:36;;;;;;;63.10;25.13;;;;;;;;;;5049772;28;41638;-83
2021/12/27 02:19:03;;;;;;;57.95;23.95;;;;;;;;;;5050735;28;45032;-83
2021/12/27 02:21:30;;;;;;;62.80;24.52;;;;;;;;;;5049057;28;43660;-83
2021/12/27 02:23:59;;;;;;;66.97;26.30;;;;;;;;;;5049478;28;43952;-83
2021/12/27 02:26:25;;;;;;;;;;;;;;;;;;5051509;28;41605;-83
2021/12/27 02:28:52;;;;;;;53.28;22.90;;;;;;;;;;5049440;28;42988;-83
2021/12/27 02:31:19;;;;;;;61.85;24.13;;;;;;;;;;5049583;28;44495;-83
2021/12/27 02:33:46;;;;;;;68.07;24.08;;;;;;;;;;5049616;28;45088;-83
2021/12/27 02:36:13;;;;;;;60.70;25.52;;;;;;;;;;5048803;28;44899;-83
2021/12/27 02:38:41;;;;;;;71.97;27.02;;;;;;;;;;5049933;28;42831;-83
2021/12/27 02:41:09;;;;;;;66.22;27.27;;;;;;;;;;5048685;28;44746;-83
2021/12/27 02:43:38;;;;;;;;;;;;;;;;;;5051307;28;44249;-83
2021/12/27 02:46:07;;;;;;;58.53;24.10;;;;;;;;;;5049650;28;44374;-83
2021/12/27 02:48:35;;;;;;;52.58;23.17;;;;;;;;;;5049506;28;44674;-83
2021/12/27 02:51:02;;;;;;;53.50;24.25;;;;;;;;;;5049768;28;44030;-83
2021/12/27 02:53:28;;;;;;;59.33;25.20;;;;;;;;;;5049792;28;42835;-83
2021/12/27 02:55:56;;;;;;;58.20;26.08;;;;;;;;;;5048429;28;43836;-83
2021/12/27 02:58:23;;;;;;;69.30;25.33;;;;;;;;;;5049714;28;43840;-83
2021/12/27 03:00:54;;;;;;;62.08;24.63;;;;;;;;;;5050034;28;43435;-83
2021/12/27 03:03:21;;;;;;;54.95;23.33;;;;;;;;;;5048757;28;43782;-83
2021/12/27 03:05:48;;;;;;;72.72;25.83;;;;;;;;;;5049624;28;44040;-83
2021/12/27 03:08:16;;;;;;;58.95;25.30;;;;;;;;;;5049120;28;44687;-83
2021/12/27 03:10:44;;;;;;;68.15;28.15;;;;;;;;;;5049352;28;44940;-83
2021/12/27 03:13:15;;;;;;;76.30;25.77;;;;;;;;;;5049060;28;43608;-83
2021/12/27 03:15:42;;;;;;;69.45;25.50;;;;;;;;;;5049472;28;42815;-83
2021/12/27 03:18:10;;;;;;;73.80;26.25;;;;;;;;;;5048153;28;42977;-83
2021/12/27 03:20:37;;;;;;;81.75;28.80;;;;;;;;;;5049554;28;44116;-83
2021/12/27 03:23:04;;;;;;;79.75;27.10;;;;;;;;;;5049854;28;20075;-83
2021/12/27 03:25:32;;;;;;;69.30;25.17;;;;;;;;;;5049099;28;43955;-83
2021/12/27 03:27:59;;;;;;;96.78;26.08;;;;;;;;;;5048796;28;43679;-83
2021/12/27 03:30:26;;;;;;;97.15;28.10;;;;;;;;;;5048924;28;43049;-83
2021/12/27 03:32:53;;;;;;;81.97;27.25;;;;;;;;;;5049348;28;37107;-83
2021/12/27 03:35:36;;;;;;;92.70;28.98;;;;;;;;;;5049404;28;41583;-83
2021/12/27 03:38:04;;;;;;;93.47;27.50;;;;;;;;;;5048000;28;43913;-83
2021/12/27 03:40:31;;;;;;;93.60;29.33;;;;;;;;;;5049245;28;44723;-83
2021/12/27 03:42:58;;;;;;;86.93;27.42;;;;;;;;;;5048632;28;42870;-83
2021/12/27 03:45:30;;;;;;;106.30;29.27;;;;;;;;;;5049735;28;20519;-84
2021/12/27 03:47:59;;;;;;;79.68;27.65;;;;;;;;;;5048213;28;44743;-83
2021/12/27 03:50:26;;;;;;;85.15;28.13;;;;;;;;;;5049851;28;43689;-84
2021/12/27 03:52:53;;;;;;;100.82;27.75;;;;;;;;;;5047914;28;42866;-83
2021/12/27 03:55:20;;;;;;;91.78;27.85;;;;;;;;;;5049088;28;42834;-83
2021/12/27 03:57:54;;;;;;;84.88;27.42;;;;;;;;;;5049009;28;42873;-83
2021/12/27 04:02:50;;;;;;;97.20;27.77;;;;;;;;;;5052014;28;44822;-83
2021/12/27 04:05:17;;;;;;;84.10;28.73;;;;;;;;;;5052247;28;44036;-83
2021/12/27 04:07:45;;;;;;;90.70;27.23;;;;;;;;;;5051150;28;42107;-83
2021/12/27 04:10:12;;;;;;;117.00;28.58;;;;;;;;;;5051567;28;43854;-83
2021/12/27 04:12:39;;;;;;;100.78;27.85;;;;;;;;;;5050908;28;42586;-83
2021/12/27 04:15:08;;;;;;;122.88;30.52;;;;;;;;;;5052316;28;42669;-83
2021/12/27 04:17:35;;;;;;;110.88;28.52;;;;;;;;;;5051761;28;44928;-84
2021/12/27 04:20:03;;;;;;;84.87;28.90;;;;;;;;;;5051513;28;43718;-84
2021/12/27 04:22:33;;;;;;;113.07;28.83;;;;;;;;;;5051367;28;42806;-84
2021/12/27 04:25:12;;;;;;;140.57;31.63;;;;;;;;;;5051880;28;43831;-84
2021/12/27 04:27:39;;;;;;;90.97;27.10;;;;;;;;;;5050336;28;43413;-83
2021/12/27 04:30:06;;;;;;;80.20;25.50;;;;;;;;;;5052279;28;44907;-83
2021/12/27 04:32:32;;;;;;;98.35;28.70;;;;;;;;;;5050218;28;42029;-83
2021/12/27 04:34:59;;;;;;;96.78;28.70;;;;;;;;;;5051357;28;42686;-83
2021/12/27 04:37:29;;;;;;;95.82;28.05;;;;;;;;;;5051378;28;43884;-83
2021/12/27 04:39:56;;;;;;;76.20;25.80;;;;;;;;;;5051656;28;44943;-83
2021/12/27 04:42:23;;;;;;;90.03;28.05;;;;;;;;;;5050410;28;42854;-84
2021/12/27 04:44:49;;;;;;;75.53;26.10;;;;;;;;;;5051338;28;44972;-83
2021/12/27 04:47:16;;;;;;;96.50;27.50;;;;;;;;;;5050256;28;42687;-84
2021/12/27 04:49:43;;;;;;;93.80;28.02;;;;;;;;;;5050179;28;42653;-84
2021/12/27 04:52:10;;;;;;;75.40;25.05;;;;;;;;;;5051091;28;44866;-84
2021/12/27 04:54:37;;;;;;;80.38;25.60;;;;;;;;;;5050049;28;42621;-83
2021/12/27 04:57:04;;;;;;;68.25;25.02;;;;;;;;;;5050772;28;44915;-83
2021/12/27 04:59:31;;;;;;;65.30;25.05;;;;;;;;;;5050277;28;42930;-83
2021/12/27 05:01:58;;;;;;;66.63;24.88;;;;;;;;;;5047928;28;45373;-83
2021/12/27 05:04:25;;;;;;;78.70;25.98;;;;;;;;;;5049459;28;44247;-83
2021/12/27 05:06:51;;;;;;;69.65;26.20;;;;;;;;;;5048758;28;45428;-83
2021/12/27 05:09:18;;;;;;;59.30;22.77;;;;;;;;;;5050347;28;43842;-84
2021/12/27 05:11:45;;;;;;;63.90;23.27;;;;;;;;;;5051143;28;44266;-83
2021/12/27 05:14:12;;;;;;;64.63;22.88;;;;;;;;;;5068424;28;44965;-84
2021/12/27 05:16:39;;;;;;;68.97;24.38;;;;;;;;;;5070351;28;43903;-86
2021/12/27 05:19:06;;;;;;;61.92;23.58;;;;;;;;;;5031819;28;36596;-84
2021/12/27 05:21:32;;;;;;;84.25;24.42;;;;;;;;;;5031611;28;42733;-84
2021/12/27 05:23:59;;;;;;;68.32;24.20;;;;;;;;;;5030345;28;42917;-84
2021/12/27 05:26:26;;;;;;;80.45;23.90;;;;;;;;;;5031254;28;42775;-84
2021/12/27 05:28:52;;;;;;;72.55;23.25;;;;;;;;;;5031392;28;44928;-84
2021/12/27 05:31:20;;;;;;;76.78;25.13;;;;;;;;;;5030046;28;44259;-83
2021/12/27 05:33:46;;;;;;;73.95;23.08;;;;;;;;;;5030782;28;44685;-84
2021/12/27 05:36:13;;;;;;;91.38;25.77;;;;;;;;;;5030108;28;43860;-84
2021/12/27 05:38:40;;;;;;;133.13;28.77;;;;;;;;;;5030406;28;44818;-84
2021/12/27 05:41:07;;;;;;;90.88;25.60;;;;;;;;;;5029890;28;43430;-84
2021/12/27 05:43:34;;;;;;;118.75;27.75;;;;;;;;;;5040307;28;42503;-84
2021/12/27 05:46:02;;;;;;;89.22;25.38;;;;;;;;;;5048106;28;43295;-84
2021/12/27 05:48:28;;;;;;;193.35;32.58;;;;;;;;;;5048692;28;43855;-84
2021/12/27 05:50:55;;;;;;;127.50;29.25;;;;;;;;;;5048208;28;45136;-83
2021/12/27 05:53:22;;;;;;;135.90;29.30;;;;;;;;;;5050617;28;43345;-83
2021/12/27 05:55:51;;;;;;;211.05;33.58;;;;;;;;;;5050265;28;44965;-83
2021/12/27 05:58:17;;;;;;;;;;;;;;;;;;5050543;28;42681;-83
2021/12/27 06:00:44;;;;;;;167.25;30.27;;;;;;;;;;5050987;28;43332;-83
2021/12/27 06:03:11;;;;;;;160.68;31.95;;;;;;;;;;5050212;28;44864;-83
2021/12/27 06:05:38;;;;;;;127.90;30.67;;;;;;;;;;5049568;28;44745;-83
2021/12/27 06:08:05;;;;;;;174.10;32.65;;;;;;;;;;5049642;28;43052;-83
2021/12/27 06:10:32;;;;;;;141.88;31.75;;;;;;;;;;5050473;28;43920;-83
2021/12/27 06:12:59;;;;;;;209.60;35.75;;;;;;;;;;5048948;28;43772;-83
2021/12/27 06:15:25;;;;;;;194.82;36.20;;;;;;;;;;5048539;28;44020;-83
2021/12/27 06:17:52;;;;;;;171.48;32.05;;;;;;;;;;5049707;28;43384;-83
2021/12/27 06:20:19;;;;;;;143.25;31.35;;;;;;;;;;5049618;28;42766;-83
2021/12/27 06:22:51;;;;;;;152.85;33.17;;;;;;;;;;5049376;28;44898;-83
2021/12/27 06:25:17;;;;;;;186.13;36.92;;;;;;;;;;5050568;28;42907;-83
2021/12/27 06:27:44;;;;;;;211.13;37.05;;;;;;;;;;5048865;28;42828;-83
2021/12/27 06:30:13;;;;;;;240.77;40.65;;;;;;;;;;5050059;28;42891;-83
2021/12/27 06:32:40;;;;;;;174.60;33.53;;;;;;;;;;5048925;28;44827;-83
2021/12/27 06:35:08;;;;;;;224.93;38.08;;;;;;;;;;5048317;28;42902;-83
2021/12/27 06:37:35;;;;;;;177.35;35.05;;;;;;;;;;5049339;28;42920;-83
2021/12/27 06:40:03;;;;;;;151.95;32.58;;;;;;;;;;5050181;28;44794;-83
2021/12/27 06:42:29;;;;;;;157.25;32.25;;;;;;;;;;5049219;28;45507;-83
2021/12/27 06:44:56;;;;;;;229.50;37.83;;;;;;;;;;5049986;28;44947;-83
2021/12/27 06:47:24;;;;;;;258.65;39.28;;;;;;;;;;5048792;28;42955;-84
2021/12/27 06:49:51;;;;;;;223.68;40.45;;;;;;;;;;5049875;28;44672;-83
2021/12/27 06:52:18;;;;;;;211.32;38.83;;;;;;;;;;5049224;28;44733;-84
2021/12/27 06:54:45;;;;;;;212.07;37.10;;;;;;;;;;5049052;28;45005;-83
2021/12/27 06:57:12;;;;;;;238.88;40.70;;;;;;;;;;5049089;28;44062;-83
2021/12/27 06:59:38;;;;;;;231.48;40.92;;;;;;;;;;5050002;28;44062;-83
2021/12/27 07:02:05;;;;;;;185.02;38.15;;;;;;;;;;5048311;28;42865;-83
2021/12/27 07:04:32;;;;;;;214.93;39.30;;;;;;;;;;5050064;28;44060;-83
2021/12/27 07:06:59;;;;;;;244.77;39.22;;;;;;;;;;5049118;28;43695;-83
2021/12/27 07:09:28;;;;;;;;;;;;;;;;;;5050627;28;42871;-83
2021/12/27 07:11:55;;;;;;;138.18;32.20;;;;;;;;;;5049006;28;44360;-83
2021/12/27 07:14:27;;;;;;;258.13;39.10;;;;;;;;;;5049074;28;43877;-83
2021/12/27 07:16:53;;;;;;;262.77;41.47;;;;;;;;;;5047395;28;42718;-83
2021/12/27 07:19:20;;;;;;;238.55;40.47;;;;;;;;;;5049461;28;42724;-83
2021/12/27 07:21:47;;;;;;;273.33;41.28;;;;;;;;;;5048715;28;44861;-83
2021/12/27 07:24:13;;;;;;;334.20;44.47;;;;;;;;;;5048569;28;43852;-84
2021/12/27 07:26:40;;;;;;;253.80;39.08;;;;;;;;;;5048960;28;43716;-83
2021/12/27 07:29:07;;;;;;;287.98;43.42;;;;;;;;;;5049057;28;44887;-83
2021/12/27 07:31:33;;;;;;;281.58;43.10;;;;;;;;;;5048207;28;42913;-83
2021/12/27 07:34:01;;;;;;;327.63;43.63;;;;;;;;;;5051169;28;44108;-83
2021/12/27 07:36:29;;;;;;;269.50;41.63;;;;;;;;;;5051656;28;43879;-83
2021/12/27 07:38:56;;;;;;;263.88;40.42;;;;;;;;;;5053000;28;43822;-83
2021/12/27 07:41:23;;;;;;;268.95;41.92;;;;;;;;;;5052248;28;42841;-83
2021/12/27 07:43:49;;;;;;;341.77;44.33;;;;;;;;;;5052144;28;42922;-83
2021/12/27 07:46:18;;;;;;;;;;;;;;;;;;5053321;28;43782;-83
2021/12/27 07:48:44;;;;;;;304.33;41.80;;;;;;;;;;5052863;28;45285;-83
2021/12/27 07:51:12;;;;;;;299.45;40.72;;;;;;;;;;5053318;28;20063;-83
2021/12/27 07:53:39;;;;;;;193.60;36.55;;;;;;;;;;5052706;28;43939;-83
2021/12/27 07:56:07;;;;;;;244.05;41.08;;;;;;;;;;5051695;28;44959;-83
2021/12/27 07:58:34;;;;;;;183.55;36.80;;;;;;;;;;5051972;28;43810;-83
2021/12/27 08:01:01;;;;;;;263.92;40.55;;;;;;;;;;5052261;28;44961;-83
2021/12/27 08:03:27;;;;;;;253.43;40.95;;;;;;;;;;5051948;28;44966;-83
2021/12/27 08:05:56;;;;;;;140.13;32.83;;;;;;;;;;5051768;28;43340;-83
2021/12/27 08:08:23;;;;;;;252.02;39.92;;;;;;;;;;5052268;28;44915;-83
2021/12/27 08:10:50;;;;;;;173.00;35.08;;;;;;;;;;5052238;28;45193;-83
2021/12/27 08:13:16;;;;;;;229.45;40.15;;;;;;;;;;5051464;28;42747;-83
2021/12/27 08:15:43;;;;;;;232.65;38.17;;;;;;;;;;5052111;28;42940;-83
2021/12/27 08:18:10;;;;;;;175.00;35.30;;;;;;;;;;5051325;28;42769;-83
2021/12/27 08:20:37;;;;;;;278.30;40.88;;;;;;;;;;5051587;28;44859;-83
2021/12/27 08:23:03;;;;;;;269.13;38.92;;;;;;;;;;5050999;28;43959;-83
2021/12/27 08:25:30;;;;;;;220.98;36.92;;;;;;;;;;5052003;28;44762;-83
2021/12/27 08:27:57;;;;;;;158.15;34.67;;;;;;;;;;5049988;28;43411;-83
2021/12/27 08:30:23;;;;;;;198.93;37.15;;;;;;;;;;5052140;28;45103;-83
2021/12/27 08:32:52;;;;;;;162.05;35.58;;;;;;;;;;5050661;28;45018;-83
2021/12/27 08:35:20;;;;;;;207.68;38.63;;;;;;;;;;5052178;28;44961;-83
2021/12/27 08:37:47;;;;;;;228.23;38.70;;;;;;;;;;5050722;28;44684;-83
2021/12/27 08:40:13;;;;;;;160.02;36.72;;;;;;;;;;5051135;28;44402;-83
2021/12/27 08:42:40;;;;;;;209.43;37.67;;;;;;;;;;5047104;28;42441;-83
2021/12/27 08:45:07;;;;;;;150.77;34.22;;;;;;;;;;5049807;28;45078;-83
2021/12/27 08:47:34;;;;;;;155.30;35.58;;;;;;;;;;5047174;28;42405;-83
2021/12/27 08:50:01;;;;;;;141.77;34.35;;;;;;;;;;5048904;28;43926;-83
2021/12/27 08:52:31;;;;;;;165.57;36.78;;;;;;;;;;5050118;28;43671;-84
2021/12/27 08:55:01;;;;;;;128.60;33.15;;;;;;;;;;5050225;28;44890;-87
2021/12/27 08:57:40;;;;;;;138.45;34.40;;;;;;;;;;5051516;28;44152;-85
2021/12/27 09:00:16;;;;;;;120.25;33.65;;;;;;;;;;5054559;28;20061;-88
2021/12/27 09:02:59;;;;;;;117.78;33.67;;;;;;;;;;5052298;28;20076;-86
2021/12/27 09:05:26;;;;;;;100.75;32.28;;;;;;;;;;5076620;28;27079;-86
2021/12/27 09:07:53;;;;;;;111.95;34.78;;;;;;;;;;5069466;28;43860;-85
2021/12/27 09:10:20;;;;;;;118.32;36.38;;;;;;;;;;5052147;28;44956;-84
2021/12/27 09:12:46;;;;;;;105.85;33.75;;;;;;;;;;5051241;28;44851;-84
2021/12/27 09:15:16;;;;;;;152.30;35.33;;;;;;;;;;5050550;28;43881;-85
2021/12/27 09:17:50;;;;;;;117.32;34.53;;;;;;;;;;5042168;28;44913;-87
2021/12/27 09:20:37;;;;;;;99.72;32.40;;;;;;;;;;5032703;28;20065;-86
2021/12/27 09:23:26;;;;;;;84.60;31.17;;;;;;;;;;5034374;28;20058;-85
2021/12/27 09:26:07;;;;;;;84.35;30.08;;;;;;;;;;5047443;28;44790;-84
2021/12/27 09:28:33;;;;;;;96.85;32.40;;;;;;;;;;5049928;28;42826;-84
2021/12/27 09:31:00;;;;;;;99.03;32.00;;;;;;;;;;5048897;28;43917;-84
2021/12/27 09:33:27;;;;;;;83.63;30.08;;;;;;;;;;5049238;28;43703;-84
2021/12/27 09:35:54;;;;;;;87.78;31.38;;;;;;;;;;5049123;28;44848;-84
2021/12/27 09:38:20;;;;;;;89.07;28.88;;;;;;;;;;5049139;28;41251;-84
2021/12/27 09:40:49;;;;;;;102.65;31.95;;;;;;;;;;5050225;28;43828;-86
2021/12/27 09:43:16;;;;;;;93.28;30.88;;;;;;;;;;5048243;28;45127;-84
2021/12/27 09:45:43;;;;;;;117.35;34.38;;;;;;;;;;5049252;28;43420;-84
2021/12/27 09:48:10;;;;;;;89.25;32.95;;;;;;;;;;5048340;28;44195;-84
2021/12/27 09:50:40;;;;;;;82.57;31.10;;;;;;;;;;5049323;28;43492;-84
2021/12/27 09:53:07;;;;;;;80.85;30.30;;;;;;;;;;5049591;28;45269;-83
2021/12/27 09:55:46;;;;;;;99.05;31.83;;;;;;;;;;5048750;28;43852;-83
2021/12/27 09:58:13;;;;;;;78.53;31.90;;;;;;;;;;5055023;28;42701;-83
2021/12/27 10:00:41;;;;;;;86.18;32.60;;;;;;;;;;5057954;28;43708;-83
2021/12/27 10:03:09;;;;;;;68.65;29.33;;;;;;;;;;5057023;28;45102;-83
2021/12/27 10:05:36;;;;;;;;;;;;;;;;;;5058308;28;43069;-83
2021/12/27 10:08:03;;;;;;;73.80;28.02;;;;;;;;;;5056879;28;45022;-82
2021/12/27 10:10:30;;;;;;;85.72;30.90;;;;;;;;;;5057239;28;46045;-83
2021/12/27 10:12:57;;;;;;;66.82;26.50;;;;;;;;;;5056835;28;42638;-83
2021/12/27 10:15:31;;;;;;;72.75;27.15;;;;;;;;;;5057349;28;43890;-83
2021/12/27 10:18:06;;;;;;;53.00;24.38;;;;;;;;;;5061255;28;43995;-85
2021/12/27 10:20:33;;;;;;;52.03;25.23;;;;;;;;;;5066874;28;44819;-85
2021/12/27 10:22:59;;;;;;;55.85;26.08;;;;;;;;;;5067933;28;45076;-83
2021/12/27 10:25:27;;;;;;;60.05;26.27;;;;;;;;;;5049473;28;41721;-83
2021/12/27 10:27:55;;;;;;;58.08;26.83;;;;;;;;;;5046754;28;44905;-83
2021/12/27 10:30:26;;;;;;;57.67;26.20;;;;;;;;;;5045350;28;42975;-83
2021/12/27 10:33:05;;;;;;;65.38;27.42;;;;;;;;;;5026594;28;45141;-83
2021/12/27 10:35:34;;;;;;;55.17;25.88;;;;;;;;;;5028913;28;43389;-83
2021/12/27 10:38:13;;;;;;;47.15;22.98;;;;;;;;;;5027888;28;42594;-83
2021/12/27 10:40:46;;;;;;;55.00;23.73;;;;;;;;;;5027940;28;43563;-83
2021/12/27 10:43:13;;;;;;;42.55;23.35;;;;;;;;;;5036664;28;44117;-83
2021/12/27 10:45:40;;;;;;;46.13;23.25;;;;;;;;;;5048702;28;42887;-83
2021/12/27 10:48:07;;;;;;;40.20;21.90;;;;;;;;;;5043048;28;44029;-83
2021/12/27 10:50:35;;;;;;;36.28;21.02;;;;;;;;;;5056411;28;42915;-82
2021/12/27 10:53:03;;;;;;;32.70;20.17;;;;;;;;;;5052850;28;43665;-83
2021/12/27 10:55:34;;;;;;;29.83;18.92;;;;;;;;;;5055772;28;42851;-82
2021/12/27 10:58:18;;;;;;;31.02;20.02;;;;;;;;;;5055864;28;43594;-82
2021/12/27 11:00:47;;;;;;;31.20;17.58;;;;;;;;;;5055964;28;42702;-82
2021/12/27 11:03:23;;;;;;;26.27;17.15;;;;;;;;;;5054732;28;42899;-82
2021/12/27 11:05:50;;;;;;;27.63;18.05;;;;;;;;;;5056560;28;45066;-82
2021/12/27 11:08:17;;;;;;;25.42;15.80;;;;;;;;;;5058245;28;43052;-82
2021/12/27 11:10:43;;;;;;;25.75;17.25;;;;;;;;;;5059935;28;42148;-82
2021/12/27 11:13:10;;;;;;;23.58;16.05;;;;;;;;;;5058399;28;44898;-82
2021/12/27 11:15:37;;;;;;;26.85;17.20;;;;;;;;;;5058972;28;43420;-83
2021/12/27 11:18:04;;;;;;;27.83;16.42;;;;;;;;;;5057743;28;44238;-83
2021/12/27 11:20:31;;;;;;;22.85;14.90;;;;;;;;;;5059494;28;44633;-82
2021/12/27 11:22:59;;;;;;;20.73;15.38;;;;;;;;;;5058160;28;45022;-82
2021/12/27 11:25:36;;;;;;;24.48;14.88;;;;;;;;;;5059998;28;44033;-83
2021/12/27 11:28:06;;;;;;;29.83;16.45;;;;;;;;;;5059259;28;43564;-82
2021/12/27 11:30:34;;;;;;;22.73;15.07;;;;;;;;;;5058632;28;44904;-83
2021/12/27 11:33:12;;;;;;;22.30;15.27;;;;;;;;;;5058800;28;42369;-82
2021/12/27 11:35:51;;;;;;;34.00;17.10;;;;;;;;;;5058927;28;44356;-82
2021/12/27 11:38:26;;;;;;;32.75;16.88;;;;;;;;;;5058744;28;44958;-82
2021/12/27 11:40:53;;;;;;;25.45;16.50;;;;;;;;;;5059458;28;41189;-83
2021/12/27 11:43:20;;;;;;;24.10;15.88;;;;;;;;;;5057697;28;42948;-83
2021/12/27 11:45:46;;;;;;;26.20;17.05;;;;;;;;;;5059351;28;42933;-83
2021/12/27 11:48:27;;;;;;;22.40;13.75;;;;;;;;;;5047288;28;43917;-83
2021/12/27 11:50:56;;;;;;;21.30;13.73;;;;;;;;;;5038834;28;43866;-83
2021/12/27 11:53:27;;;;;;;19.05;12.63;;;;;;;;;;5039290;28;43925;-82
2021/12/27 11:55:54;;;;;;;22.10;13.07;;;;;;;;;;5040229;28;43897;-83
2021/12/27 11:58:27;;;;;;;20.48;13.23;;;;;;;;;;5037936;28;42967;-82
2021/12/27 12:00:54;;;;;;;20.73;12.60;;;;;;;;;;5039127;28;42862;-82
2021/12/27 12:03:34;;;;;;;20.25;11.85;;;;;;;;;;5033833;28;44910;-83
2021/12/27 12:06:01;;;;;;;19.65;12.70;;;;;;;;;;5039006;28;45354;-83
2021/12/27 12:08:27;;;;;;;20.42;12.82;;;;;;;;;;5039116;28;42682;-83
2021/12/27 12:11:01;;;;;;;16.73;11.73;;;;;;;;;;5037736;28;44978;-86
2021/12/27 12:13:29;;;;;;;17.65;11.30;;;;;;;;;;5036634;28;43993;-83
2021/12/27 12:15:58;;;;;;;19.58;12.52;;;;;;;;;;5038358;28;42539;-83
2021/12/27 12:18:25;;;;;;;16.60;10.85;;;;;;;;;;5036067;28;43979;-83
2021/12/27 12:20:51;;;;;;;15.35;11.68;;;;;;;;;;5030078;28;43662;-83
2021/12/27 12:23:52;;;;;;;17.25;11.10;;;;;;;;;;5039314;28;42527;-82
2021/12/27 12:26:19;;;;;;;17.83;11.18;;;;;;;;;;5037401;28;43887;-82
2021/12/27 12:28:46;;;;;;;18.63;11.50;;;;;;;;;;5038329;28;43624;-82
2021/12/27 12:31:13;;;;;;;17.52;11.93;;;;;;;;;;5030796;28;44957;-82
2021/12/27 12:33:39;;;;;;;16.85;11.55;;;;;;;;;;5039043;28;42153;-82
2021/12/27 12:36:06;;;;;;;15.27;10.80;;;;;;;;;;5038372;28;42568;-82
2021/12/27 12:38:34;;;;;;;15.23;11.15;;;;;;;;;;5039228;28;44217;-81
2021/12/27 12:41:01;;;;;;;;;;;;;;;;;;5039817;28;43614;-84
2021/12/27 12:43:40;;;;;;;15.10;11.00;;;;;;;;;;5038720;28;43921;-81
2021/12/27 12:46:17;;;;;;;16.60;11.25;;;;;;;;;;5031651;28;43794;-82
2021/12/27 12:48:54;;;;;;;17.23;10.27;;;;;;;;;;5032095;28;44952;-82
2021/12/27 12:51:39;;;;;;;16.43;11.00;;;;;;;;;;5042319;28;43872;-84
2021/12/27 12:54:08;;;;;;;14.15;11.18;;;;;;;;;;5022276;28;45261;-82
2021/12/27 12:56:36;;;;;;;;;;;;;;;;;;5011625;28;45055;-82
2021/12/27 12:59:04;;;;;;;17.33;10.85;;;;;;;;;;5022661;28;45044;-82
2021/12/27 13:01:31;;;;;;;14.83;10.27;;;;;;;;;;4989905;28;45289;-81
2021/12/27 13:04:02;;;;;;;17.08;11.00;;;;;;;;;;5054225;28;44945;-83
2021/12/27 13:06:43;;;;;;;16.85;11.73;;;;;;;;;;5048169;28;42867;-81
2021/12/27 13:09:10;;;;;;;13.90;11.05;;;;;;;;;;5045920;28;43600;-81
2021/12/27 13:11:38;;;;;;;17.20;11.23;;;;;;;;;;5045260;28;44115;-81
2021/12/27 13:14:05;;;;;;;20.43;11.63;;;;;;;;;;5048013;28;42858;-81
2021/12/27 13:16:34;;;;;;;12.95;10.82;;;;;;;;;;5045276;28;44636;-81
2021/12/27 13:19:08;;;;;;;15.05;11.45;;;;;;;;;;5049023;28;43077;-81
2021/12/27 13:21:41;;;;;;;16.27;11.65;;;;;;;;;;5045928;28;43901;-81
2021/12/27 13:24:08;;;;;;;14.07;10.82;;;;;;;;;;5046536;28;42935;-81
2021/12/27 13:26:36;;;;;;;20.70;10.82;;;;;;;;;;5044095;28;42904;-81
2021/12/27 13:29:02;;;;;;;16.35;10.77;;;;;;;;;;5048914;28;42719;-81
2021/12/27 13:31:29;;;;;;;13.65;10.70;;;;;;;;;;5047564;28;43739;-86
2021/12/27 13:33:59;;;;;;;14.90;10.93;;;;;;;;;;5049817;28;43215;-86
2021/12/27 13:36:27;;;;;;;14.93;10.75;;;;;;;;;;5047194;28;37953;-84
2021/12/27 13:39:20;;;;;;;17.30;11.93;;;;;;;;;;5057090;28;43984;-84
2021/12/27 13:41:50;;;;;;;13.52;10.77;;;;;;;;;;5054385;28;42905;-83
2021/12/27 13:44:31;;;;;;;16.30;12.32;;;;;;;;;;5056283;28;44085;-84
2021/12/27 13:47:03;;;;;;;21.60;11.57;;;;;;;;;;5056840;28;44887;-84
2021/12/27 13:49:29;;;;;;;14.30;10.65;;;;;;;;;;5056144;28;44745;-84
2021/12/27 13:52:04;;;;;;;16.52;11.60;;;;;;;;;;5056924;28;41787;-84
2021/12/27 13:54:41;;;;;;;18.55;11.65;;;;;;;;;;5056765;28;44093;-83
2021/12/27 13:57:09;;;;;;;16.17;10.55;;;;;;;;;;5056710;28;20053;-83
2021/12/27 13:59:36;;;;;;;14.57;10.18;;;;;;;;;;5056867;28;44952;-82
2021/12/27 14:02:04;;;;;;;15.05;10.88;;;;;;;;;;5055329;28;45286;-83
2021/12/27 14:04:32;;;;;;;15.82;10.82;;;;;;;;;;5055420;28;43632;-83
2021/12/27 14:07:00;;;;;;;17.75;12.68;;;;;;;;;;5054707;28;42820;-83
2021/12/27 14:09:26;;;;;;;16.85;10.85;;;;;;;;;;5056830;28;36425;-82
2021/12/27 14:11:53;;;;;;;16.17;10.77;;;;;;;;;;5054922;28;42853;-83
2021/12/27 14:14:34;;;;;;;14.65;10.32;;;;;;;;;;5055487;28;44955;-83
2021/12/27 14:17:21;;;;;;;14.07;10.55;;;;;;;;;;5056386;28;43699;-82
2021/12/27 14:19:59;;;;;;;17.00;10.93;;;;;;;;;;5055856;28;43405;-82
2021/12/27 14:22:36;;;;;;;14.48;11.07;;;;;;;;;;5057128;28;43936;-82
2021/12/27 14:25:03;;;;;;;20.30;10.85;;;;;;;;;;5055632;28;38208;-82
2021/12/27 14:27:33;;;;;;;17.02;11.57;;;;;;;;;;5055587;28;42880;-82
2021/12/27 14:30:02;;;;;;;18.88;11.65;;;;;;;;;;5057323;28;44212;-89